Time;durP1;ratioP1;P1;durP2;ratioP2;P2;SDS_P1;SDS_P2;PMS_P1;PMS_P2;Temp;Humidity;BMP_temperature;BMP_pressure;BME280_temperature;BME280_humidity;BME280_pressure;Samples;Min_cycle;Max_cycle;Signal;HPM_P1;HPM_P2
2021/12/24 00:00:15;;;;;;;81.75;31.48;;;7.00;99.90;;;;;;5031988;28;20057;-75
2021/12/24 00:02:41;;;;;;;370.13;56.33;;;6.90;99.90;;;;;;5032049;28;20133;-75
2021/12/24 00:05:07;;;;;;;297.40;53.55;;;7.00;99.90;;;;;;5032304;28;20133;-75
2021/12/24 00:07:34;;;;;;;301.35;54.60;;;7.00;99.90;;;;;;5032185;28;20099;-75
2021/12/24 00:09:59;;;;;;;399.60;59.65;;;7.10;99.90;;;;;;5032296;28;20428;-74
2021/12/24 00:12:28;;;;;;;261.83;50.38;;;7.00;99.90;;;;;;5048580;28;20042;-74
2021/12/24 00:15:00;;;;;;;262.35;51.97;;;7.00;99.90;;;;;;5034560;28;20053;-74
2021/12/24 00:17:27;;;;;;;289.73;52.90;;;7.00;99.90;;;;;;5036125;28;20053;-74
2021/12/24 00:20:08;;;;;;;244.80;50.42;;;7.00;99.90;;;;;;5035930;28;20132;-75
2021/12/24 00:35:07;;;;;;;241.73;50.67;;;7.00;99.90;;;;;;5035936;28;20107;-74
2021/12/24 00:36:18;;;;;;;305.48;51.05;;;7.10;99.90;;;;;;5035946;28;20076;-74
2021/12/24 00:38:44;;;;;;;257.67;47.20;;;7.10;99.90;;;;;;5035576;28;20480;-75
2021/12/24 00:41:10;;;;;;;235.90;47.45;;;7.10;99.90;;;;;;5035316;28;20049;-74
2021/12/24 00:43:36;;;;;;;278.25;47.80;;;7.10;99.90;;;;;;5036499;28;20049;-74
2021/12/24 00:46:02;;;;;;;324.98;49.95;;;7.10;99.90;;;;;;5035386;28;20057;-75
2021/12/24 00:48:27;;;;;;;308.58;48.42;;;7.20;99.90;;;;;;5035283;28;20056;-75
2021/12/24 00:51:18;;;;;;;195.10;38.78;;;7.20;99.90;;;;;;5035826;28;20067;-74
2021/12/24 00:56:10;;;;;;;219.15;40.85;;;7.20;99.90;;;;;;5034992;28;20055;-75
2021/12/24 00:58:36;;;;;;;228.40;41.67;;;7.30;99.90;;;;;;5034973;28;20053;-75
2021/12/24 01:01:04;;;;;;;179.90;38.42;;;7.30;99.90;;;;;;5051493;28;20053;-75
2021/12/24 01:03:31;;;;;;;161.35;35.85;;;7.30;99.90;;;;;;5035056;28;20049;-75
2021/12/24 01:05:56;;;;;;;173.00;36.80;;;7.30;99.90;;;;;;5036147;28;20041;-75
2021/12/24 01:08:22;;;;;;;192.30;37.00;;;7.40;99.90;;;;;;5035108;28;20107;-75
2021/12/24 01:10:59;;;;;;;225.88;41.08;;;7.40;99.90;;;;;;5034939;28;20404;-75
2021/12/24 01:13:26;;;;;;;139.95;32.17;;;7.40;99.90;;;;;;5034943;28;20072;-75
2021/12/24 01:21:19;;;;;;;150.73;32.15;;;7.50;99.90;;;;;;5034782;28;20506;-75
2021/12/24 01:23:56;;;;;;;239.02;39.28;;;7.60;99.90;;;;;;5034898;28;20056;-75
2021/12/24 01:26:37;;;;;;;148.23;32.08;;;7.60;99.90;;;;;;5035015;28;20053;-75
2021/12/24 01:42:42;;;;;;;119.93;28.20;;;7.70;99.90;;;;;;5034724;28;20088;-75
2021/12/24 01:45:14;;;;;;;160.70;30.55;;;7.70;99.90;;;;;;5034472;28;20041;-75
2021/12/24 01:47:39;;;;;;;103.38;25.60;;;7.80;99.90;;;;;;5034331;28;20111;-75
2021/12/24 01:50:05;;;;;;;91.25;24.33;;;7.80;99.90;;;;;;5034366;28;20136;-75
2021/12/24 01:52:31;;;;;;;93.20;23.98;;;7.90;99.90;;;;;;5033976;28;20049;-75
2021/12/24 01:54:57;;;;;;;115.28;26.20;;;7.90;99.90;;;;;;5034097;28;20052;-75
2021/12/24 01:57:23;;;;;;;97.88;25.33;;;7.90;99.90;;;;;;5017701;28;20468;-75
2021/12/24 01:59:49;;;;;;;131.38;26.70;;;7.90;99.90;;;;;;5017288;28;20046;-75
2021/12/24 02:02:14;;;;;;;75.35;20.88;;;7.90;99.90;;;;;;5035156;28;20068;-75
2021/12/24 02:04:40;;;;;;;63.85;19.35;;;8.00;99.90;;;;;;5033976;28;20128;-75
2021/12/24 02:07:06;;;;;;;80.53;21.83;;;8.00;99.90;;;;;;5051002;28;20057;-75
2021/12/24 02:09:34;;;;;;;92.50;23.40;;;8.00;99.90;;;;;;5033954;28;20107;-75
2021/12/24 02:12:00;;;;;;;76.72;22.48;;;8.10;99.90;;;;;;5033825;28;20051;-75
2021/12/24 02:14:33;;;;;;;87.60;23.73;;;8.10;99.90;;;;;;5034539;28;20084;-75
2021/12/24 02:17:23;;;;;;;93.63;23.85;;;8.00;99.90;;;;;;5034076;28;20092;-75
2021/12/24 02:28:38;;;;;;;116.35;26.75;;;8.10;99.90;;;;;;5025437;28;20492;-76
2021/12/24 02:31:06;;;;;;;115.03;26.45;;;8.10;99.90;;;;;;5020350;28;20060;-75
2021/12/24 02:33:32;;;;;;;80.22;23.00;;;8.10;99.90;;;;;;5033394;28;20064;-75
2021/12/24 02:35:58;;;;;;;104.15;22.73;;;8.10;99.90;;;;;;5033524;28;20041;-75
2021/12/24 02:38:24;;;;;;;96.35;24.17;;;8.10;99.90;;;;;;5034080;28;20050;-75
2021/12/24 02:40:50;;;;;;;95.95;23.90;;;8.20;99.90;;;;;;5016804;28;20045;-75
2021/12/24 02:43:19;;;;;;;97.75;25.75;;;8.20;99.90;;;;;;5033423;28;20512;-75
2021/12/24 02:45:47;;;;;;;90.15;24.05;;;8.20;99.90;;;;;;5033019;28;20064;-75
2021/12/24 02:48:46;;;;;;;93.43;24.13;;;8.20;99.90;;;;;;5049765;28;20064;-75
2021/12/24 02:56:24;;;;;;;98.20;23.77;;;8.20;99.90;;;;;;5032666;28;20560;-74
2021/12/24 02:58:50;;;;;;;79.15;21.63;;;8.20;99.90;;;;;;5032821;28;20452;-74
2021/12/24 03:01:21;;;;;;;73.60;22.25;;;8.20;99.90;;;;;;5033132;28;20049;-74
2021/12/24 03:03:48;;;;;;;77.22;21.92;;;8.20;99.90;;;;;;5033211;28;20049;-74
2021/12/24 03:06:21;;;;;;;96.15;23.92;;;8.20;99.90;;;;;;5049661;28;20061;-74
2021/12/24 03:08:47;;;;;;;84.03;22.45;;;8.20;99.90;;;;;;5016960;28;20132;-74
2021/12/24 03:11:13;;;;;;;72.28;20.88;;;8.30;99.90;;;;;;5033300;28;20041;-74
2021/12/24 03:13:40;;;;;;;80.45;22.27;;;8.30;99.90;;;;;;5032850;28;20053;-74
2021/12/24 03:16:06;;;;;;;94.32;24.48;;;8.30;99.90;;;;;;5032850;28;20547;-74
2021/12/24 03:18:35;;;;;;;92.20;23.02;;;8.30;99.90;;;;;;5032838;28;20045;-74
2021/12/24 03:21:28;;;;;;;89.03;23.13;;;8.30;99.90;;;;;;5033057;28;20132;-74
2021/12/24 03:26:29;;;;;;;109.18;25.45;;;8.40;99.90;;;;;;5032740;28;20049;-74
2021/12/24 03:28:55;;;;;;;95.75;24.70;;;8.40;99.90;;;;;;5033163;28;20049;-74
2021/12/24 03:31:21;;;;;;;97.53;24.05;;;8.40;99.90;;;;;;5032564;28;20136;-74
2021/12/24 03:33:48;;;;;;;110.93;25.83;;;8.40;99.90;;;;;;5016063;28;20046;-74
2021/12/24 03:36:14;;;;;;;164.30;29.80;;;8.50;99.90;;;;;;5032608;28;20045;-74
2021/12/24 03:38:41;;;;;;;172.98;29.52;;;8.50;99.90;;;;;;5032538;28;20045;-74
2021/12/24 03:41:07;;;;;;;184.10;32.67;;;8.50;99.90;;;;;;5032735;28;20428;-74
2021/12/24 03:43:33;;;;;;;193.27;33.85;;;8.60;99.90;;;;;;5032445;28;20106;-74
2021/12/24 03:46:03;;;;;;;198.73;33.13;;;8.60;99.90;;;;;;5032206;28;20516;-74
2021/12/24 03:48:49;;;;;;;202.57;32.72;;;8.60;99.90;;;;;;5032803;28;20504;-74
2021/12/24 03:56:30;;;;;;;253.63;39.15;;;8.60;99.90;;;;;;5036686;28;20072;-74
2021/12/24 03:58:56;;;;;;;269.92;39.25;;;8.60;99.90;;;;;;5019466;28;20084;-74
2021/12/24 04:01:22;;;;;;;212.32;35.22;;;8.60;99.90;;;;;;5036947;28;20092;-74
2021/12/24 04:03:47;;;;;;;149.00;32.28;;;8.70;99.90;;;;;;5036177;28;20071;-74
2021/12/24 04:06:13;;;;;;;208.55;37.67;;;8.70;99.90;;;;;;5036216;28;20481;-74
2021/12/24 04:08:39;;;;;;;167.40;34.10;;;8.80;99.90;;;;;;5036134;28;20041;-74
2021/12/24 04:11:06;;;;;;;173.50;36.28;;;8.80;99.90;;;;;;5035922;28;20404;-74
2021/12/24 04:13:32;;;;;;;216.90;40.03;;;8.90;99.90;;;;;;5037142;28;20053;-74
2021/12/24 04:15:58;;;;;;;225.48;40.33;;;9.00;99.90;;;;;;5036326;28;20133;-74
2021/12/24 04:26:27;;;;;;;217.77;37.55;;;8.90;99.90;;;;;;5036020;28;20130;-74
2021/12/24 04:28:53;;;;;;;200.48;35.00;;;9.00;99.90;;;;;;5035361;28;20045;-74
2021/12/24 04:31:23;;;;;;;208.02;37.40;;;9.00;99.90;;;;;;5035596;28;20072;-74
2021/12/24 04:33:50;;;;;;;179.05;35.35;;;9.00;99.90;;;;;;5035769;28;20091;-74
2021/12/24 05:03:26;;;;;;;162.10;44.10;;;9.10;99.90;;;;;;5034240;28;20400;-74
2021/12/24 05:06:05;;;;;;;196.05;44.72;;;9.10;99.90;;;;;;5018339;28;20053;-74
2021/12/24 05:08:39;;;;;;;203.90;46.63;;;9.10;99.90;;;;;;5017784;28;20056;-74
2021/12/24 05:11:10;;;;;;;255.13;47.92;;;9.10;99.90;;;;;;5033963;28;20072;-74
2021/12/24 05:13:37;;;;;;;184.65;44.63;;;9.10;99.90;;;;;;5017386;28;20100;-74
2021/12/24 05:16:16;;;;;;;210.52;43.97;;;9.10;99.90;;;;;;5017460;28;20052;-74
2021/12/24 05:21:36;;;;;;;185.00;41.60;;;9.10;99.90;;;;;;5034008;28;20053;-74
2021/12/24 05:24:07;;;;;;;169.77;40.10;;;9.20;99.90;;;;;;5033804;28;20060;-75
2021/12/24 05:26:35;;;;;;;139.02;41.78;;;9.10;99.90;;;;;;5033682;28;20060;-74
2021/12/24 05:29:01;;;;;;;133.52;40.90;;;9.20;99.90;;;;;;5016686;28;20115;-74
2021/12/24 05:31:28;;;;;;;167.18;42.47;;;9.10;99.90;;;;;;5017118;28;20508;-74
2021/12/24 05:33:54;;;;;;;125.30;37.42;;;9.20;99.90;;;;;;5033844;28;20089;-75
2021/12/24 05:36:20;;;;;;;189.05;45.08;;;9.10;99.90;;;;;;5050203;28;20473;-74
2021/12/24 05:38:46;;;;;;;151.98;41.88;;;9.10;99.90;;;;;;5033486;28;20056;-74
2021/12/24 05:41:13;;;;;;;181.80;47.33;;;9.10;99.90;;;;;;5033192;28;20057;-74
2021/12/24 05:43:39;;;;;;;183.15;46.95;;;9.20;99.90;;;;;;5033446;28;20081;-75
2021/12/24 05:46:05;;;;;;;191.00;45.70;;;9.20;99.90;;;;;;4995385;28;1105191;-74
2021/12/24 05:48:31;;;;;;;165.43;44.92;;;9.20;99.90;;;;;;5050643;28;20468;-74
2021/12/24 05:50:57;;;;;;;146.02;43.15;;;9.20;99.90;;;;;;5050934;28;20515;-74
2021/12/24 05:53:24;;;;;;;169.30;44.95;;;9.20;99.90;;;;;;5034186;28;20132;-74
2021/12/24 05:55:50;;;;;;;176.82;45.67;;;9.20;99.90;;;;;;5034671;28;20053;-74
2021/12/24 05:58:18;;;;;;;135.70;42.65;;;9.20;99.90;;;;;;5051670;28;20045;-74
2021/12/24 06:00:44;;;;;;;148.23;42.75;;;9.20;99.90;;;;;;5017212;28;20068;-74
2021/12/24 06:03:11;;;;;;;157.10;43.72;;;9.20;99.90;;;;;;5035059;28;20496;-74
2021/12/24 06:05:38;;;;;;;158.18;43.78;;;9.20;99.90;;;;;;5034020;28;20045;-74
2021/12/24 06:08:05;;;;;;;140.70;39.92;;;9.20;99.90;;;;;;5033642;28;20045;-74
2021/12/24 06:10:32;;;;;;;129.25;41.03;;;9.20;99.90;;;;;;5033853;28;20053;-74
2021/12/24 06:12:58;;;;;;;119.65;37.58;;;9.10;99.90;;;;;;5033107;28;20492;-74
2021/12/24 06:15:26;;;;;;;134.68;37.95;;;9.20;99.90;;;;;;5033947;28;20045;-74
2021/12/24 06:17:55;;;;;;;130.73;36.83;;;9.20;99.90;;;;;;5033515;28;20428;-74
2021/12/24 06:20:22;;;;;;;107.05;35.03;;;9.10;99.90;;;;;;5033885;28;20060;-74
2021/12/24 06:22:49;;;;;;;148.63;36.85;;;9.10;99.90;;;;;;5033761;28;20061;-74
2021/12/24 06:25:17;;;;;;;137.60;37.33;;;9.10;99.90;;;;;;5033650;28;20037;-74
2021/12/24 06:27:47;;;;;;;123.72;35.80;;;9.20;99.90;;;;;;5033639;28;20045;-74
2021/12/24 06:30:13;;;;;;;105.28;32.65;;;9.10;99.90;;;;;;5032902;28;20461;-74
2021/12/24 06:32:39;;;;;;;120.47;32.03;;;9.10;99.90;;;;;;5033166;28;20049;-74
2021/12/24 06:35:09;;;;;;;93.43;30.25;;;9.10;99.90;;;;;;5034525;28;20107;-74
2021/12/24 06:37:36;;;;;;;102.25;32.38;;;9.10;99.90;;;;;;5017187;28;20049;-74
2021/12/24 06:40:02;;;;;;;90.45;29.90;;;9.10;99.90;;;;;;5033379;28;20061;-74
2021/12/24 06:42:28;;;;;;;93.65;28.98;;;9.10;99.90;;;;;;5034337;28;20103;-75
2021/12/24 06:44:54;;;;;;;90.03;27.90;;;9.10;99.90;;;;;;5050739;28;20455;-74
2021/12/24 06:47:20;;;;;;;110.22;27.52;;;9.10;99.90;;;;;;5032598;28;20057;-74
2021/12/24 06:49:45;;;;;;;72.25;24.55;;;9.20;99.90;;;;;;5033288;28;20046;-74
2021/12/24 06:52:11;;;;;;;108.88;26.63;;;9.10;99.90;;;;;;5034135;28;20049;-74
2021/12/24 06:54:37;;;;;;;95.57;26.58;;;9.10;99.90;;;;;;5016906;28;20077;-74
2021/12/24 06:57:03;;;;;;;86.20;24.70;;;9.10;99.90;;;;;;5049854;28;20499;-73
2021/12/24 06:59:29;;;;;;;90.63;25.85;;;9.10;99.90;;;;;;5032721;28;20052;-73
2021/12/24 07:01:59;;;;;;;98.25;25.92;;;9.10;99.90;;;;;;5033066;28;20046;-73
2021/12/24 07:04:26;;;;;;;70.50;23.90;;;9.10;99.90;;;;;;5016616;28;20049;-74
2021/12/24 07:06:52;;;;;;;88.47;25.17;;;9.10;99.90;;;;;;5033218;28;20053;-74
2021/12/24 07:09:18;;;;;;;79.10;25.10;;;9.10;99.90;;;;;;5016572;28;20137;-74
2021/12/24 07:11:44;;;;;;;80.30;25.55;;;9.20;99.90;;;;;;5032868;28;20450;-74
2021/12/24 07:14:09;;;;;;;89.32;27.38;;;9.20;99.90;;;;;;5032913;28;20056;-73
2021/12/24 07:16:35;;;;;;;85.38;27.63;;;9.10;99.90;;;;;;5033838;28;20136;-74
2021/12/24 07:19:02;;;;;;;93.32;28.33;;;9.10;99.90;;;;;;5033024;28;20049;-74
2021/12/24 07:21:28;;;;;;;68.82;24.48;;;9.00;99.90;;;;;;5016442;28;20567;-74
2021/12/24 07:23:54;;;;;;;86.05;26.77;;;9.00;99.90;;;;;;5032647;28;20492;-74
2021/12/24 07:26:20;;;;;;;80.07;25.85;;;9.00;99.90;;;;;;5032948;28;20049;-74
2021/12/24 07:28:47;;;;;;;85.55;25.42;;;9.00;99.90;;;;;;5032215;28;20370;-74
2021/12/24 07:31:13;;;;;;;80.15;24.63;;;8.90;99.90;;;;;;5032505;28;20085;-74
2021/12/24 07:33:39;;;;;;;91.95;25.80;;;9.00;99.90;;;;;;5032692;28;20060;-74
2021/12/24 07:36:05;;;;;;;61.65;22.80;;;9.00;99.90;;;;;;5032348;28;20049;-74
2021/12/24 07:38:31;;;;;;;65.68;21.33;;;9.00;99.90;;;;;;5032512;28;20473;-74
2021/12/24 07:40:56;;;;;;;66.20;21.65;;;9.00;99.90;;;;;;5016220;28;20114;-74
2021/12/24 07:43:22;;;;;;;63.72;21.42;;;9.00;99.90;;;;;;5032429;28;20046;-75
2021/12/24 07:45:50;;;;;;;83.30;22.23;;;9.00;99.90;;;;;;5032184;28;20061;-75
2021/12/24 07:48:26;;;;;;;56.25;18.88;;;9.10;99.90;;;;;;5032274;28;20116;-75
2021/12/24 07:53:18;;;;;;;68.60;20.80;;;9.10;99.90;;;;;;5032503;28;20129;-75
2021/12/24 07:55:45;;;;;;;70.70;21.67;;;9.10;99.90;;;;;;5016011;28;20050;-74
2021/12/24 07:58:14;;;;;;;67.70;21.35;;;9.00;99.90;;;;;;5032508;28;20045;-73
2021/12/24 08:00:41;;;;;;;71.95;21.75;;;9.10;99.90;;;;;;5032986;28;20107;-72
2021/12/24 08:03:07;;;;;;;66.18;21.90;;;9.10;99.90;;;;;;5032664;28;20096;-72
2021/12/24 08:05:35;;;;;;;74.53;20.52;;;9.10;99.90;;;;;;5048963;28;20119;-73
2021/12/24 08:08:01;;;;;;;72.88;18.98;;;9.10;99.90;;;;;;5032354;28;20242;-71
2021/12/24 08:10:27;;;;;;;59.95;19.58;;;9.10;99.90;;;;;;5032826;28;20112;-72
2021/12/24 08:12:54;;;;;;;65.90;19.40;;;9.10;99.90;;;;;;5033458;28;20053;-75
2021/12/24 08:15:20;;;;;;;43.30;16.20;;;9.10;99.90;;;;;;5033968;28;20045;-72
2021/12/24 08:17:46;;;;;;;48.38;17.98;;;9.00;99.90;;;;;;5039206;28;20069;-73
2021/12/24 08:20:14;;;;;;;54.85;18.85;;;9.00;99.90;;;;;;5034381;28;20400;-71
2021/12/24 08:22:40;;;;;;;62.30;19.13;;;9.00;99.90;;;;;;5032252;28;20057;-71
2021/12/24 08:25:08;;;;;;;51.30;19.60;;;9.00;99.90;;;;;;5015729;28;20507;-74
2021/12/24 08:27:40;;;;;;;60.83;19.83;;;9.00;99.90;;;;;;5032239;28;20128;-72
2021/12/24 08:30:07;;;;;;;64.35;18.25;;;9.00;99.90;;;;;;5031669;28;20100;-72
2021/12/24 08:32:39;;;;;;;54.58;17.02;;;9.00;99.90;;;;;;5033673;28;20046;-72
2021/12/24 08:35:08;;;;;;;55.75;17.67;;;9.00;99.90;;;;;;5033271;28;20053;-71
2021/12/24 08:37:34;;;;;;;58.67;16.80;;;9.00;99.90;;;;;;5036989;28;20484;-71
2021/12/24 08:40:00;;;;;;;52.55;18.60;;;9.00;99.90;;;;;;5036697;28;20045;-70
2021/12/24 08:42:25;;;;;;;61.28;17.95;;;8.90;99.90;;;;;;5035758;28;20095;-71
2021/12/24 08:44:52;;;;;;;49.78;16.58;;;8.90;99.90;;;;;;5036567;28;20504;-70
2021/12/24 08:47:18;;;;;;;51.97;17.05;;;8.90;99.90;;;;;;5035403;28;20064;-73
2021/12/24 08:49:43;;;;;;;57.13;19.20;;;9.00;99.90;;;;;;5035604;28;20049;-72
2021/12/24 08:52:09;;;;;;;63.45;17.70;;;9.00;99.90;;;;;;5036476;28;20095;-71
2021/12/24 08:54:35;;;;;;;54.08;15.73;;;9.00;99.90;;;;;;5032256;28;20041;-75
2021/12/24 08:57:01;;;;;;;49.85;17.83;;;9.00;99.90;;;;;;5033328;28;20049;-76
2021/12/24 08:59:27;;;;;;;67.32;18.60;;;9.00;99.90;;;;;;5032141;28;20481;-76
2021/12/24 09:01:53;;;;;;;74.85;17.55;;;9.00;99.90;;;;;;5033389;28;20090;-74
2021/12/24 09:04:19;;;;;;;72.90;20.00;;;9.00;99.90;;;;;;5033813;28;20092;-74
2021/12/24 09:06:45;;;;;;;79.32;20.67;;;9.00;99.90;;;;;;5035033;28;20124;-73
2021/12/24 09:09:11;;;;;;;64.00;20.35;;;9.10;99.90;;;;;;5035315;28;20467;-73
2021/12/24 09:11:39;;;;;;;53.28;17.02;;;9.10;99.90;;;;;;5034951;28;20045;-73
2021/12/24 09:14:05;;;;;;;50.67;18.58;;;9.10;99.90;;;;;;5036048;28;20041;-73
2021/12/24 09:16:33;;;;;;;61.15;19.90;;;9.00;99.90;;;;;;5034834;28;20067;-74
2021/12/24 09:19:04;;;;;;;65.47;17.48;;;9.10;99.90;;;;;;5035073;28;20057;-73
2021/12/24 09:21:30;;;;;;;64.13;19.08;;;9.10;99.90;;;;;;5034863;28;20135;-73
2021/12/24 09:23:57;;;;;;;52.30;17.70;;;9.10;99.90;;;;;;5035855;28;20139;-73
2021/12/24 09:26:28;;;;;;;47.78;17.08;;;9.00;99.90;;;;;;5035920;28;20057;-73
2021/12/24 09:28:56;;;;;;;61.35;17.88;;;9.00;99.90;;;;;;5034366;28;20048;-73
2021/12/24 09:31:22;;;;;;;75.43;18.73;;;9.10;99.90;;;;;;5035686;28;20414;-73
2021/12/24 09:33:48;;;;;;;67.05;18.08;;;9.10;99.90;;;;;;5035728;28;20092;-73
2021/12/24 09:36:14;;;;;;;63.28;17.77;;;9.10;99.90;;;;;;5035817;28;20077;-72
2021/12/24 09:38:40;;;;;;;58.08;16.83;;;9.10;99.90;;;;;;5034813;28;20092;-73
2021/12/24 09:41:05;;;;;;;55.83;17.10;;;9.10;99.90;;;;;;5034463;28;20428;-74
2021/12/24 09:43:31;;;;;;;45.30;15.15;;;9.10;99.90;;;;;;5035162;28;20096;-74
2021/12/24 09:45:57;;;;;;;59.15;16.30;;;9.10;99.90;;;;;;5034579;28;20065;-74
2021/12/24 09:48:22;;;;;;;38.00;13.13;;;9.10;99.90;;;;;;5034001;28;20068;-74
2021/12/24 09:50:48;;;;;;;59.20;15.90;;;9.10;99.90;;;;;;5035300;28;20136;-74
2021/12/24 09:53:14;;;;;;;15.73;7.10;;;9.20;99.90;;;;;;5010138;28;20069;-74
2021/12/24 09:55:40;;;;;;;10.82;4.85;;;9.10;99.90;;;;;;5031676;28;20049;-75
2021/12/24 09:58:05;;;;;;;8.18;3.70;;;8.90;99.90;;;;;;5031758;28;20037;-79
2021/12/24 10:00:31;;;;;;;7.88;4.30;;;8.70;99.90;;;;;;5031833;28;20140;-76
2021/12/24 10:02:59;;;;;;;9.73;4.72;;;8.70;99.90;;;;;;5033273;28;20107;-75
2021/12/24 10:05:37;;;;;;;7.20;4.50;;;8.70;99.90;;;;;;5034524;28;20401;-75
2021/12/24 10:08:25;;;;;;;7.90;4.57;;;8.70;99.90;;;;;;5034482;28;20484;-80
2021/12/24 10:11:01;;;;;;;11.20;5.40;;;8.50;99.90;;;;;;5033870;28;20110;-72
2021/12/24 10:13:43;;;;;;;11.10;5.28;;;8.50;99.90;;;;;;5034186;28;20053;-73
2021/12/24 10:16:22;;;;;;;12.80;6.15;;;8.50;99.90;;;;;;5033668;28;20045;-73
2021/12/24 10:18:50;;;;;;;10.85;4.90;;;8.50;99.90;;;;;;5033854;28;20052;-74
2021/12/24 10:21:20;;;;;;;10.77;5.55;;;8.50;99.90;;;;;;5033832;28;20058;-75
2021/12/24 10:23:56;;;;;;;13.48;6.07;;;8.60;99.90;;;;;;5033712;28;20101;-74
2021/12/24 10:26:37;;;;;;;7.57;4.30;;;8.50;99.90;;;;;;5034224;28;20128;-74
2021/12/24 10:29:05;;;;;;;8.27;4.70;;;8.40;99.90;;;;;;5033250;28;20057;-74
2021/12/24 10:31:39;;;;;;;15.50;6.95;;;8.30;99.90;;;;;;5034511;28;20099;-74
2021/12/24 10:34:10;;;;;;;11.45;5.28;;;8.40;99.90;;;;;;5033672;28;20059;-75
2021/12/24 10:37:05;;;;;;;6.97;4.55;;;8.30;99.90;;;;;;5033841;28;20045;-75
2021/12/24 10:39:37;;;;;;;12.05;5.70;;;8.30;99.90;;;;;;5033704;28;20456;-74
2021/12/24 10:42:07;;;;;;;11.45;5.22;;;8.40;99.90;;;;;;5033577;28;20439;-73
2021/12/24 10:44:35;;;;;;;13.68;5.32;;;8.50;99.90;;;;;;5033470;28;20045;-74
2021/12/24 10:47:07;;;;;;;10.55;5.30;;;8.60;99.90;;;;;;5033160;28;20057;-79
2021/12/24 10:54:54;;;;;;;19.27;6.72;;;8.20;99.90;;;;;;5033430;28;20477;-75
2021/12/24 10:57:25;;;;;;;14.32;5.95;;;8.20;99.90;;;;;;5032828;28;20128;-79
2021/12/24 10:59:54;;;;;;;17.33;6.88;;;8.20;99.90;;;;;;5032484;28;20042;-79
2021/12/24 11:02:23;;;;;;;13.93;6.43;;;8.20;99.90;;;;;;5033150;28;20080;-79
2021/12/24 11:04:51;;;;;;;24.50;7.65;;;8.20;99.90;;;;;;5033056;28;20064;-77
2021/12/24 11:07:33;;;;;;;19.17;7.30;;;8.20;99.90;;;;;;5032986;28;20127;-77
2021/12/24 11:10:16;;;;;;;11.20;6.03;;;8.20;99.90;;;;;;5030194;28;20128;-74
2021/12/24 11:12:47;;;;;;;9.65;5.80;;;8.30;99.90;;;;;;5032533;28;20057;-74
2021/12/24 11:15:28;;;;;;;18.75;7.43;;;8.40;99.90;;;;;;5032600;28;20053;-74
2021/12/24 11:18:04;;;;;;;8.88;4.93;;;8.30;99.90;;;;;;5032234;28;20053;-74
2021/12/24 11:20:31;;;;;;;19.42;7.07;;;8.00;99.90;;;;;;5030183;28;20053;-74
2021/12/24 11:23:07;;;;;;;17.30;7.57;;;8.20;99.90;;;;;;5031779;28;20433;-71
2021/12/24 11:25:39;;;;;;;12.97;6.47;;;8.20;99.90;;;;;;5033404;28;20089;-71
2021/12/24 11:28:06;;;;;;;13.52;6.88;;;8.40;99.90;;;;;;5035594;28;20412;-74
2021/12/24 11:30:34;;;;;;;13.27;6.35;;;8.50;99.90;;;;;;5033225;28;20064;-74
2021/12/24 11:33:00;;;;;;;20.27;7.97;;;8.60;99.90;;;;;;5066289;28;20052;-74
2021/12/24 11:35:28;;;;;;;22.95;8.88;;;8.60;99.90;;;;;;5016275;28;20050;-72
2021/12/24 11:37:54;;;;;;;15.13;7.25;;;8.60;99.90;;;;;;5032670;28;20396;-72
2021/12/24 11:40:23;;;;;;;12.73;6.47;;;8.60;99.90;;;;;;5032654;28;20056;-74
2021/12/24 11:42:53;;;;;;;19.73;7.93;;;8.70;99.90;;;;;;5032607;28;20060;-73
2021/12/24 11:45:22;;;;;;;15.82;6.90;;;8.70;99.90;;;;;;5065782;28;20045;-75
2021/12/24 11:47:49;;;;;;;17.80;7.45;;;8.70;99.90;;;;;;5032837;28;20057;-73
2021/12/24 11:50:16;;;;;;;11.95;6.07;;;8.70;99.90;;;;;;5049192;28;20474;-73
2021/12/24 11:52:45;;;;;;;8.35;5.15;;;8.70;99.90;;;;;;5032207;28;20053;-73
2021/12/24 11:55:11;;;;;;;14.68;6.35;;;8.50;99.90;;;;;;5016634;28;20515;-73
2021/12/24 11:57:56;;;;;;;16.67;6.57;;;8.50;99.90;;;;;;5032419;28;20143;-72
2021/12/24 12:00:29;;;;;;;8.70;4.75;;;8.50;99.90;;;;;;5048517;28;20060;-71
2021/12/24 12:02:55;;;;;;;16.40;6.35;;;8.30;99.90;;;;;;5032616;28;20103;-71
2021/12/24 12:05:26;;;;;;;11.38;5.60;;;8.40;99.90;;;;;;5037115;28;20046;-77
2021/12/24 12:08:12;;;;;;;12.63;5.40;;;8.40;99.90;;;;;;5066128;28;20053;-71
2021/12/24 12:11:15;;;;;;;12.23;5.47;;;8.40;99.90;;;;;;5035490;28;20046;-71
2021/12/24 12:13:45;;;;;;;13.18;5.63;;;8.50;99.90;;;;;;5037407;28;20515;-74
2021/12/24 12:16:18;;;;;;;7.72;4.65;;;8.50;99.90;;;;;;5037519;28;20060;-75
2021/12/24 12:18:48;;;;;;;9.27;5.68;;;8.50;99.90;;;;;;5036674;28;20056;-72
2021/12/24 12:21:34;;;;;;;13.82;7.40;;;8.50;99.90;;;;;;5036173;28;20053;-74
2021/12/24 12:26:43;;;;;;;12.50;6.72;;;8.60;99.90;;;;;;5069617;28;20459;-71
2021/12/24 12:29:29;;;;;;;15.82;8.13;;;8.60;99.90;;;;;;5036156;28;20045;-74
2021/12/24 12:32:03;;;;;;;9.25;5.28;;;8.60;99.90;;;;;;5036799;28;20049;-73
2021/12/24 12:34:38;;;;;;;9.95;5.75;;;8.60;99.90;;;;;;5036173;28;20060;-71
2021/12/24 12:37:10;;;;;;;16.50;6.60;;;8.70;99.90;;;;;;5052391;28;20140;-71
2021/12/24 12:39:36;;;;;;;15.60;6.65;;;8.60;99.90;;;;;;5036734;28;20060;-71
2021/12/24 12:42:03;;;;;;;10.23;5.50;;;8.60;99.90;;;;;;5036662;28;20138;-71
2021/12/24 12:44:29;;;;;;;12.38;6.25;;;8.70;99.90;;;;;;5035725;28;20041;-70
2021/12/24 12:47:11;;;;;;;8.70;4.78;;;8.60;99.90;;;;;;5068300;28;20107;-72
2021/12/24 12:49:37;;;;;;;6.85;4.40;;;8.60;99.90;;;;;;5069036;28;20101;-72
2021/12/24 12:52:07;;;;;;;7.63;4.50;;;8.70;99.90;;;;;;5035386;28;20211;-72
2021/12/24 12:54:39;;;;;;;17.17;9.75;;;8.70;99.90;;;;;;5035736;28;20049;-72
2021/12/24 12:57:08;;;;;;;14.63;8.88;;;8.70;99.90;;;;;;5036462;28;20531;-74
2021/12/24 12:59:33;;;;;;;28.88;12.40;;;8.80;99.90;;;;;;5035091;28;20448;-75
2021/12/24 13:02:01;;;;;;;16.77;8.75;;;8.80;99.90;;;;;;5018839;28;20111;-74
2021/12/24 13:04:27;;;;;;;13.55;6.95;;;8.90;99.90;;;;;;5019111;28;20405;-73
2021/12/24 13:06:54;;;;;;;13.48;6.93;;;8.90;99.90;;;;;;5036313;28;20046;-73
2021/12/24 13:09:32;;;;;;;15.27;7.80;;;8.90;99.90;;;;;;5068715;28;20045;-74
2021/12/24 13:11:58;;;;;;;15.55;8.23;;;8.80;99.90;;;;;;5035192;28;20548;-73
2021/12/24 13:14:28;;;;;;;12.27;7.00;;;8.80;99.90;;;;;;5036401;28;20393;-73
2021/12/24 13:25:15;;;;;;;9.95;5.60;;;8.70;99.90;;;;;;5036035;28;20500;-73
2021/12/24 13:27:50;;;;;;;12.60;6.25;;;8.80;99.90;;;;;;5034835;28;20049;-74
2021/12/24 13:30:23;;;;;;;13.13;6.43;;;8.90;99.90;;;;;;5035824;28;20060;-74
2021/12/24 13:32:54;;;;;;;20.25;7.85;;;8.90;99.90;;;;;;5034516;28;20050;-74
2021/12/24 13:35:41;;;;;;;8.75;5.35;;;8.90;99.90;;;;;;5036011;28;20108;-74
2021/12/24 13:38:24;;;;;;;15.25;5.85;;;8.90;99.90;;;;;;5067938;28;20477;-74
2021/12/24 13:40:51;;;;;;;9.38;5.25;;;9.00;99.90;;;;;;5067853;28;20055;-74
2021/12/24 13:43:18;;;;;;;12.88;6.93;;;8.80;99.90;;;;;;5035542;28;20128;-74
2021/12/24 13:45:51;;;;;;;13.20;6.72;;;8.80;99.90;;;;;;5034227;28;20128;-73
2021/12/24 13:48:40;;;;;;;9.75;5.57;;;8.80;99.90;;;;;;5034327;28;20050;-73
2021/12/24 13:56:27;;;;;;;14.85;7.18;;;8.50;99.90;;;;;;5067692;28;20145;-72
2021/12/24 13:58:58;;;;;;;15.85;8.07;;;8.40;99.90;;;;;;5050909;28;20068;-72
2021/12/24 14:01:29;;;;;;;19.40;8.90;;;8.40;99.90;;;;;;5067073;28;20551;-73
2021/12/24 14:03:56;;;;;;;11.02;6.15;;;8.30;99.90;;;;;;5034257;28;20045;-72
2021/12/24 14:06:39;;;;;;;14.25;7.85;;;8.20;99.90;;;;;;5034095;28;20140;-72
2021/12/24 14:09:21;;;;;;;16.92;7.80;;;8.10;99.90;;;;;;5067102;28;20095;-73
2021/12/24 14:11:49;;;;;;;18.67;8.98;;;8.20;99.90;;;;;;5033982;28;20096;-73
2021/12/24 14:14:21;;;;;;;15.63;7.97;;;8.10;99.90;;;;;;5067263;28;20362;-73
2021/12/24 14:20:01;;;;;;;18.45;8.10;;;8.20;99.90;;;;;;5067650;28;20093;-73
2021/12/24 14:22:32;;;;;;;24.25;9.90;;;8.00;99.90;;;;;;5020598;28;20053;-73
2021/12/24 14:25:04;;;;;;;17.27;8.73;;;8.10;99.90;;;;;;5034461;28;20498;-72
2021/12/24 14:27:31;;;;;;;14.60;8.40;;;8.10;99.90;;;;;;5066860;28;20041;-72
2021/12/24 14:30:04;;;;;;;23.88;9.93;;;8.00;99.90;;;;;;5066707;28;20370;-72
2021/12/24 14:32:34;;;;;;;21.95;9.38;;;8.00;99.90;;;;;;5066114;28;20052;-73
2021/12/24 14:35:20;;;;;;;22.90;10.50;;;7.90;99.90;;;;;;5066951;28;20049;-73
2021/12/24 14:37:59;;;;;;;25.63;10.30;;;8.00;99.90;;;;;;5033629;28;20061;-73
2021/12/24 14:40:27;;;;;;;12.88;5.72;;;7.90;99.90;;;;;;5067291;28;20045;-89
2021/12/24 14:42:54;;;;;;;19.33;9.10;;;7.80;99.90;;;;;;5017092;28;20132;-75
2021/12/24 14:45:35;;;;;;;17.08;8.00;;;7.90;99.90;;;;;;5033320;28;20057;-74
2021/12/24 14:48:08;;;;;;;15.93;8.95;;;8.00;99.90;;;;;;5033337;28;20057;-75